Time;durP1;ratioP1;P1;durP2;ratioP2;P2;SDS_P1;SDS_P2;PMS_P1;PMS_P2;Temp;Humidity;BMP_temperature;BMP_pressure;BME280_temperature;BME280_humidity;BME280_pressure;Samples;Min_cycle;Max_cycle;Signal;HPM_P1;HPM_P2
2024/01/27 00:01:32;;;;;;;5.70;2.50;;;5.20;99.90;;;;;;4997314;28;20670;-20
2024/01/27 00:03:58;;;;;;;7.80;2.58;;;5.20;99.90;;;;;;5015118;28;20038;-20
2024/01/27 00:06:24;;;;;;;5.65;2.30;;;5.10;99.90;;;;;;5012710;28;20157;-25
2024/01/27 00:08:50;;;;;;;5.87;2.40;;;5.10;99.90;;;;;;5008715;28;20044;-26
2024/01/27 00:11:16;;;;;;;4.45;2.03;;;5.10;99.90;;;;;;5010801;28;20041;-23
2024/01/27 00:13:41;;;;;;;5.43;2.40;;;5.00;99.90;;;;;;5013684;28;20113;-27
2024/01/27 00:16:08;;;;;;;4.30;2.17;;;5.00;99.90;;;;;;4997234;28;20641;-24
2024/01/27 00:18:37;;;;;;;6.03;2.00;;;4.90;99.90;;;;;;5009565;28;20060;-24
2024/01/27 00:21:03;;;;;;;8.68;2.10;;;4.90;99.90;;;;;;5014312;28;20053;-29
2024/01/27 00:23:28;;;;;;;5.07;2.20;;;4.80;99.90;;;;;;5002218;28;20041;-23
2024/01/27 00:25:54;;;;;;;5.00;2.17;;;4.80;99.90;;;;;;5013696;28;20048;-24
2024/01/27 00:28:20;;;;;;;5.90;1.97;;;4.70;99.90;;;;;;5011421;28;20259;-25
2024/01/27 00:30:45;;;;;;;5.50;2.10;;;4.70;99.90;;;;;;5012969;28;20505;-25
2024/01/27 00:33:11;;;;;;;5.37;2.40;;;4.70;99.90;;;;;;5000489;28;20029;-23
2024/01/27 00:35:37;;;;;;;5.97;2.70;;;4.60;99.90;;;;;;5010960;28;20033;-22
2024/01/27 00:38:03;;;;;;;5.10;2.00;;;4.60;99.90;;;;;;5015294;28;20057;-25
2024/01/27 00:40:28;;;;;;;4.57;2.05;;;4.60;99.90;;;;;;4962211;28;20301;-23
2024/01/27 00:42:54;;;;;;;5.55;2.03;;;7.10;99.90;;;;;;5013867;28;20111;-22
2024/01/27 00:45:22;;;;;;;4.97;1.80;;;4.50;99.90;;;;;;4996082;28;20198;-24
2024/01/27 00:47:49;;;;;;;3.97;1.80;;;4.60;99.90;;;;;;4999930;28;20092;-24
2024/01/27 00:50:15;;;;;;;4.43;2.00;;;4.50;99.90;;;;;;5013498;28;20053;-24
2024/01/27 00:52:41;;;;;;;4.47;1.97;;;4.40;99.90;;;;;;5011377;28;20124;-24
2024/01/27 00:55:07;;;;;;;4.13;2.00;;;4.40;99.90;;;;;;5010197;28;20034;-27
2024/01/27 00:57:33;;;;;;;4.50;2.00;;;4.30;99.90;;;;;;5013620;28;20111;-21
2024/01/27 00:59:58;;;;;;;5.50;2.00;;;4.30;99.90;;;;;;4992192;28;20124;-19
2024/01/27 01:02:24;;;;;;;3.47;1.58;;;3.50;99.90;;;;;;5008326;28;20033;-20
2024/01/27 01:04:50;;;;;;;4.97;1.53;;;4.20;99.90;;;;;;5012145;28;20083;-19
2024/01/27 01:07:15;;;;;;;2.80;1.50;;;4.30;99.90;;;;;;5000325;28;20287;-20
2024/01/27 01:09:41;;;;;;;4.00;1.80;;;4.20;99.90;;;;;;5011460;28;20034;-19
2024/01/27 01:12:07;;;;;;;3.85;1.83;;;4.20;99.90;;;;;;4997019;28;20041;-20
2024/01/27 01:14:33;;;;;;;4.50;1.50;;;4.20;99.90;;;;;;5012896;28;20052;-20
2024/01/27 01:16:58;;;;;;;4.63;1.70;;;4.20;99.90;;;;;;4991860;28;20470;-22
2024/01/27 01:19:24;;;;;;;2.90;1.70;;;4.20;99.90;;;;;;4995126;28;20202;-20
2024/01/27 01:21:50;;;;;;;3.97;1.70;;;7.30;99.90;;;;;;5011497;28;20280;-21
2024/01/27 01:24:15;;;;;;;4.05;1.63;;;4.10;99.90;;;;;;5007798;28;21047;-19
2024/01/27 01:26:41;;;;;;;4.77;1.67;;;6.70;99.90;;;;;;5010811;28;20037;-19
2024/01/27 01:29:07;;;;;;;4.43;1.60;;;4.10;99.90;;;;;;5014016;28;20127;-21
2024/01/27 01:31:32;;;;;;;2.80;1.43;;;4.00;99.90;;;;;;5011816;28;20269;-21
2024/01/27 01:33:58;;;;;;;3.17;1.60;;;4.00;99.90;;;;;;5010804;28;20042;-19
2024/01/27 01:36:24;;;;;;;3.27;1.60;;;4.00;99.90;;;;;;4977025;28;20046;-22
2024/01/27 01:38:50;;;;;;;2.60;1.30;;;4.00;99.90;;;;;;5010486;28;20092;-20
2024/01/27 01:41:15;;;;;;;4.43;1.60;;;4.00;99.90;;;;;;5012325;28;20135;-23
2024/01/27 01:43:41;;;;;;;3.33;1.60;;;4.00;99.90;;;;;;5015803;28;20494;-20
2024/01/27 01:46:07;;;;;;;3.40;1.40;;;4.00;99.90;;;;;;5013174;28;20691;-21
2024/01/27 01:48:33;;;;;;;4.25;1.80;;;3.90;99.90;;;;;;5010404;28;20046;-21
2024/01/27 01:51:00;;;;;;;4.47;1.90;;;3.90;99.90;;;;;;4982744;28;20884;-19
2024/01/27 01:53:26;;;;;;;3.25;1.60;;;6.10;99.90;;;;;;4994101;28;20049;-20
2024/01/27 01:55:52;;;;;;;4.25;1.70;;;3.90;99.90;;;;;;4995586;28;20425;-21
2024/01/27 01:58:18;;;;;;;5.43;1.70;;;3.90;99.90;;;;;;4981238;28;20029;-20
2024/01/27 02:00:44;;;;;;;4.17;1.60;;;3.80;99.90;;;;;;4966183;28;20038;-20
2024/01/27 02:03:13;;;;;;;4.47;1.73;;;3.80;99.90;;;;;;4991343;28;20042;-21
2024/01/27 02:05:40;;;;;;;3.38;2.08;;;3.80;99.90;;;;;;4993313;28;20522;-19
2024/01/27 02:08:06;;;;;;;5.32;1.88;;;3.80;99.90;;;;;;4995897;28;20084;-21
2024/01/27 02:10:36;;;;;;;2.50;1.40;;;3.80;99.90;;;;;;4963500;28;20323;-20
2024/01/27 02:13:24;;;;;;;4.63;1.45;;;2.90;99.90;;;;;;4994967;28;20026;-20
2024/01/27 02:15:50;;;;;;;3.47;1.55;;;3.70;99.90;;;;;;4996256;28;20624;-20
2024/01/27 02:18:16;;;;;;;2.88;1.70;;;3.70;99.90;;;;;;4997757;28;20065;-18
2024/01/27 02:20:43;;;;;;;4.78;1.80;;;3.80;99.90;;;;;;4981884;28;20426;-20
2024/01/27 02:23:09;;;;;;;4.90;1.50;;;3.70;99.90;;;;;;4976820;28;20089;-19
2024/01/27 02:25:35;;;;;;;4.10;1.52;;;6.00;99.90;;;;;;4996915;28;20584;-19
2024/01/27 02:28:02;;;;;;;4.35;1.95;;;3.60;99.90;;;;;;4996363;28;20490;-23
2024/01/27 02:30:29;;;;;;;3.30;1.60;;;3.60;99.90;;;;;;4994984;28;20819;-26
2024/01/27 02:32:57;;;;;;;3.60;1.50;;;3.50;99.90;;;;;;4995346;28;20093;-23
2024/01/27 02:35:22;;;;;;;4.30;1.83;;;3.50;99.90;;;;;;4978755;28;20034;-26
2024/01/27 02:37:48;;;;;;;3.45;1.70;;;3.50;99.90;;;;;;4999462;28;20554;-24
2024/01/27 02:40:14;;;;;;;4.60;1.77;;;2.30;99.90;;;;;;4968475;28;20030;-24
2024/01/27 02:42:42;;;;;;;2.72;1.50;;;3.40;99.90;;;;;;4999531;28;20046;-21
2024/01/27 02:45:08;;;;;;;5.10;1.80;;;3.40;99.90;;;;;;4994120;28;20598;-24
2024/01/27 02:47:34;;;;;;;3.35;1.67;;;3.40;99.90;;;;;;4995139;28;20475;-24
2024/01/27 02:50:00;;;;;;;3.87;1.90;;;3.30;99.90;;;;;;4977704;28;20030;-24
2024/01/27 02:52:27;;;;;;;4.22;1.73;;;;;;;;;;4981981;28;20080;-22
2024/01/27 02:54:53;;;;;;;3.58;1.77;;;3.30;99.90;;;;;;5012105;28;20496;-24
2024/01/27 02:57:19;;;;;;;3.33;1.47;;;3.30;99.90;;;;;;5011773;28;20174;-21
2024/01/27 02:59:46;;;;;;;4.68;1.85;;;3.30;99.90;;;;;;5015659;28;20028;-25
2024/01/27 03:02:12;;;;;;;3.67;1.65;;;3.20;99.90;;;;;;5013048;28;20029;-22
2024/01/27 03:04:37;;;;;;;4.95;1.85;;;3.20;99.90;;;;;;5011395;28;20112;-25
2024/01/27 03:07:04;;;;;;;2.67;1.50;;;2.70;99.90;;;;;;5014139;28;20064;-27
2024/01/27 03:09:31;;;;;;;3.75;1.70;;;3.20;99.90;;;;;;5012780;28;20036;-21
2024/01/27 03:11:56;;;;;;;4.38;1.77;;;3.20;99.90;;;;;;5014552;28;20112;-22
2024/01/27 03:14:22;;;;;;;2.87;1.60;;;3.20;99.90;;;;;;4999177;28;20036;-21
2024/01/27 03:16:48;;;;;;;3.13;1.50;;;1.40;99.90;;;;;;5018567;28;20130;-21
2024/01/27 03:19:14;;;;;;;4.40;1.60;;;3.20;99.90;;;;;;5010377;28;20038;-20
2024/01/27 03:21:40;;;;;;;5.23;1.90;;;1.90;99.90;;;;;;5013029;28;20045;-20
2024/01/27 03:24:06;;;;;;;4.20;1.73;;;5.80;99.90;;;;;;5015616;28;20029;-20
2024/01/27 03:26:31;;;;;;;3.30;1.63;;;3.20;99.90;;;;;;5013707;28;20048;-21
2024/01/27 03:28:57;;;;;;;3.67;1.50;;;3.20;99.90;;;;;;5015964;28;20331;-20
2024/01/27 03:31:23;;;;;;;4.20;1.90;;;3.20;99.90;;;;;;5015189;28;20505;-20
2024/01/27 03:33:49;;;;;;;3.60;1.80;;;3.20;99.90;;;;;;4996531;28;20402;-20
2024/01/27 03:36:15;;;;;;;4.72;1.73;;;3.20;99.90;;;;;;5000350;28;20128;-21
2024/01/27 03:38:43;;;;;;;4.43;1.80;;;3.20;99.90;;;;;;5016617;28;20153;-20
2024/01/27 03:41:08;;;;;;;3.75;1.90;;;3.10;99.90;;;;;;5009558;28;20289;-20
2024/01/27 03:43:34;;;;;;;4.77;1.87;;;3.20;99.90;;;;;;4968196;28;20030;-20
2024/01/27 03:46:00;;;;;;;3.67;1.83;;;3.20;99.90;;;;;;5011098;28;20062;-20
2024/01/27 03:48:26;;;;;;;3.77;1.70;;;3.10;99.90;;;;;;5012509;28;20028;-19
2024/01/27 03:50:51;;;;;;;4.03;1.65;;;3.10;99.90;;;;;;5012960;28;20278;-19
2024/01/27 03:53:17;;;;;;;3.57;1.60;;;3.10;99.90;;;;;;5012791;28;20482;-22
2024/01/27 03:55:43;;;;;;;3.15;1.50;;;3.10;99.90;;;;;;5009274;28;20190;-21
2024/01/27 03:58:09;;;;;;;5.00;1.90;;;3.10;99.90;;;;;;5010974;28;20091;-22
2024/01/27 04:00:34;;;;;;;3.15;1.80;;;3.00;99.90;;;;;;5009989;28;20037;-20
2024/01/27 04:03:00;;;;;;;3.00;1.47;;;3.00;99.90;;;;;;5010384;28;20069;-19
2024/01/27 04:05:27;;;;;;;3.20;1.58;;;3.00;99.90;;;;;;5014626;28;20127;-18
2024/01/27 04:07:53;;;;;;;4.07;1.58;;;2.90;99.90;;;;;;5012015;28;20464;-21
2024/01/27 04:10:19;;;;;;;4.10;1.75;;;2.90;99.90;;;;;;5014423;28;20058;-23
2024/01/27 04:12:44;;;;;;;5.03;2.00;;;0.50;99.90;;;;;;4995005;28;20037;-20
2024/01/27 04:15:10;;;;;;;4.57;1.50;;;2.90;99.90;;;;;;5008307;28;20041;-19
2024/01/27 04:17:40;;;;;;;5.00;1.73;;;2.90;99.90;;;;;;4994814;28;20064;-19
2024/01/27 04:20:08;;;;;;;3.70;1.40;;;2.90;99.90;;;;;;4994378;28;20045;-20
2024/01/27 04:22:34;;;;;;;3.03;1.37;;;2.90;99.90;;;;;;5012148;28;20034;-21
2024/01/27 04:24:59;;;;;;;3.40;1.45;;;2.90;99.90;;;;;;5011116;28;20087;-20
2024/01/27 04:27:27;;;;;;;4.35;1.88;;;2.80;99.90;;;;;;5012710;28;20259;-20
2024/01/27 04:29:53;;;;;;;3.13;1.60;;;2.80;99.90;;;;;;5014800;28;20041;-19
2024/01/27 04:32:19;;;;;;;2.83;1.47;;;2.80;99.90;;;;;;5011783;28;20470;-20
2024/01/27 04:34:44;;;;;;;3.78;1.60;;;2.80;99.90;;;;;;5015205;28;20540;-19
2024/01/27 04:37:10;;;;;;;3.43;1.50;;;2.80;99.90;;;;;;5016075;28;20405;-20
2024/01/27 04:39:37;;;;;;;3.85;1.45;;;2.80;99.90;;;;;;5012211;28;20041;-18
2024/01/27 04:42:03;;;;;;;5.07;1.53;;;2.70;99.90;;;;;;5014298;28;20029;-20
2024/01/27 04:44:29;;;;;;;4.53;1.60;;;2.70;99.90;;;;;;4997588;28;20584;-21
2024/01/27 04:46:54;;;;;;;2.42;1.60;;;2.80;99.90;;;;;;4992964;28;20042;-19
2024/01/27 04:49:20;;;;;;;4.37;1.67;;;1.00;99.90;;;;;;5013634;28;20026;-25
2024/01/27 04:51:46;;;;;;;3.00;1.50;;;2.60;99.90;;;;;;5008854;28;20053;-26
2024/01/27 04:54:11;;;;;;;4.57;1.60;;;2.60;99.90;;;;;;4998755;28;20080;-24
2024/01/27 04:56:37;;;;;;;4.20;1.80;;;2.60;99.90;;;;;;5010310;28;20038;-28
2024/01/27 04:59:03;;;;;;;2.93;1.47;;;2.60;99.90;;;;;;4997188;28;20657;-25
2024/01/27 05:01:29;;;;;;;3.15;1.38;;;2.60;99.90;;;;;;5010271;28;20729;-22
2024/01/27 05:03:54;;;;;;;3.70;1.37;;;2.50;99.90;;;;;;4992465;28;20603;-28
2024/01/27 05:06:20;;;;;;;2.80;1.50;;;2.50;99.90;;;;;;4993241;28;20041;-23
2024/01/27 05:08:46;;;;;;;2.53;1.57;;;2.50;99.90;;;;;;5012151;28;20033;-21
2024/01/27 05:11:11;;;;;;;4.40;1.85;;;2.50;99.90;;;;;;5012058;28;20639;-25
2024/01/27 05:13:40;;;;;;;3.80;1.83;;;2.50;99.90;;;;;;5012563;28;20041;-25
2024/01/27 05:16:06;;;;;;;5.13;1.83;;;2.40;99.90;;;;;;5011360;28;20065;-24
2024/01/27 05:18:31;;;;;;;3.50;1.52;;;2.40;99.90;;;;;;4998974;28;20638;-22
2024/01/27 05:20:57;;;;;;;2.90;1.80;;;2.40;99.90;;;;;;5007406;28;20652;-20
2024/01/27 05:23:23;;;;;;;3.50;1.70;;;2.40;99.90;;;;;;5013707;28;20029;-25
2024/01/27 05:25:49;;;;;;;4.77;1.53;;;2.40;99.90;;;;;;4975747;28;20309;-23
2024/01/27 05:28:15;;;;;;;4.65;1.50;;;2.40;99.90;;;;;;5013204;28;20037;-24
2024/01/27 05:30:40;;;;;;;2.92;1.50;;;2.30;99.90;;;;;;5007679;28;20109;-23
2024/01/27 05:33:06;;;;;;;3.17;1.57;;;2.30;99.90;;;;;;5013435;28;20033;-23
2024/01/27 05:35:32;;;;;;;3.10;1.40;;;2.30;99.90;;;;;;5009276;28;21028;-25
2024/01/27 05:37:57;;;;;;;2.95;1.55;;;2.30;99.90;;;;;;5011404;28;20132;-19
2024/01/27 05:40:23;;;;;;;2.97;1.33;;;2.30;99.90;;;;;;5014676;28;20034;-20
2024/01/27 05:42:50;;;;;;;3.00;1.50;;;2.30;99.90;;;;;;4996302;28;20379;-20
2024/01/27 05:45:15;;;;;;;4.38;1.80;;;2.30;99.90;;;;;;5001676;28;20327;-21
2024/01/27 05:47:41;;;;;;;3.63;1.67;;;2.30;99.90;;;;;;5011280;28;20030;-18
2024/01/27 05:50:08;;;;;;;2.85;1.40;;;2.20;99.90;;;;;;4994252;28;20041;-19
2024/01/27 05:52:37;;;;;;;3.22;1.55;;;2.20;99.90;;;;;;5004300;28;20053;-19
2024/01/27 05:55:06;;;;;;;4.30;1.50;;;2.30;99.90;;;;;;5010349;28;20684;-18
2024/01/27 05:57:32;;;;;;;4.78;1.80;;;2.20;99.90;;;;;;5010616;28;20075;-20
2024/01/27 05:59:57;;;;;;;5.65;2.10;;;2.20;99.90;;;;;;4993126;28;20144;-18
2024/01/27 06:02:23;;;;;;;3.70;1.60;;;2.20;99.90;;;;;;5008303;28;20045;-20
2024/01/27 06:04:49;;;;;;;3.40;1.40;;;2.20;99.90;;;;;;5010245;28;20502;-20
2024/01/27 06:07:15;;;;;;;3.85;1.45;;;2.20;99.90;;;;;;4993376;28;20171;-21
2024/01/27 06:09:41;;;;;;;3.40;1.47;;;2.20;99.90;;;;;;5013163;28;20034;-20
2024/01/27 06:12:06;;;;;;;3.40;1.70;;;2.30;99.90;;;;;;5011643;28;20137;-20
2024/01/27 06:14:32;;;;;;;5.88;1.70;;;2.20;99.90;;;;;;5012481;28;20053;-19
2024/01/27 06:16:58;;;;;;;2.57;1.30;;;2.20;99.90;;;;;;5013859;28;20040;-19
2024/01/27 06:19:24;;;;;;;2.95;1.45;;;2.20;99.90;;;;;;4994013;28;20545;-19
2024/01/27 06:21:49;;;;;;;4.00;1.58;;;2.20;99.90;;;;;;4998181;28;20360;-23
2024/01/27 06:24:15;;;;;;;3.60;1.57;;;2.20;99.90;;;;;;5011555;28;20038;-20
2024/01/27 06:26:41;;;;;;;3.38;1.85;;;2.20;99.90;;;;;;4997366;28;20060;-19
2024/01/27 06:29:06;;;;;;;4.80;1.83;;;2.20;99.90;;;;;;5010742;28;20037;-21
2024/01/27 06:31:32;;;;;;;3.53;1.60;;;2.20;99.90;;;;;;5011069;28;20374;-18
2024/01/27 06:33:58;;;;;;;3.75;1.60;;;2.20;99.90;;;;;;5007657;28;20171;-20
2024/01/27 06:36:25;;;;;;;4.43;1.50;;;-1.00;99.90;;;;;;5009964;28;20342;-20
2024/01/27 06:38:51;;;;;;;4.20;2.22;;;2.10;99.90;;;;;;4990057;28;20041;-20
2024/01/27 06:41:17;;;;;;;3.97;1.60;;;2.10;99.90;;;;;;5014381;28;20059;-19
2024/01/27 06:43:43;;;;;;;4.33;2.00;;;2.10;99.90;;;;;;5010917;28;20050;-21
2024/01/27 06:46:08;;;;;;;2.78;1.48;;;2.10;99.90;;;;;;5014453;28;20131;-20
2024/01/27 06:48:34;;;;;;;3.27;1.60;;;2.10;99.90;;;;;;5017140;28;20045;-23
2024/01/27 06:51:00;;;;;;;4.65;1.80;;;2.10;99.90;;;;;;5001485;28;20075;-22
2024/01/27 06:53:26;;;;;;;3.30;1.58;;;2.10;99.90;;;;;;5014690;28;20030;-24
2024/01/27 06:55:51;;;;;;;3.30;1.60;;;2.10;99.90;;;;;;5015960;28;20311;-23
2024/01/27 06:58:17;;;;;;;4.07;1.73;;;2.10;99.90;;;;;;5015600;28;20113;-22
2024/01/27 07:00:44;;;;;;;3.40;1.87;;;3.10;99.90;;;;;;5015486;28;20578;-24
2024/01/27 07:03:10;;;;;;;3.90;1.90;;;2.00;99.90;;;;;;5001194;28;20609;-25
2024/01/27 07:05:40;;;;;;;3.08;1.80;;;2.00;99.90;;;;;;5004376;28;20057;-23
2024/01/27 07:08:09;;;;;;;4.50;1.73;;;2.00;99.90;;;;;;5013048;28;20058;-20
2024/01/27 07:10:35;;;;;;;3.33;1.58;;;3.00;99.90;;;;;;5011997;28;20060;-20
2024/01/27 07:13:01;;;;;;;4.57;2.03;;;4.50;99.90;;;;;;5004682;28;20045;-20
2024/01/27 07:15:27;;;;;;;6.97;3.03;;;2.00;99.90;;;;;;5010630;28;20041;-19
2024/01/27 07:17:54;;;;;;;4.75;2.25;;;4.90;99.90;;;;;;5011713;28;20538;-20
2024/01/27 07:20:24;;;;;;;6.73;2.40;;;2.10;99.90;;;;;;5014328;28;20529;-20
2024/01/27 07:22:50;;;;;;;5.47;1.83;;;0.00;99.90;;;;;;5014027;28;20060;-19
2024/01/27 07:25:15;;;;;;;4.25;1.80;;;2.00;99.90;;;;;;5000002;28;20497;-19
2024/01/27 07:27:41;;;;;;;4.43;1.83;;;2.00;99.90;;;;;;5014057;28;20041;-20
2024/01/27 07:30:11;;;;;;;4.40;1.73;;;4.30;99.90;;;;;;4984233;28;20042;-21
2024/01/27 07:32:37;;;;;;;3.67;1.73;;;2.00;99.90;;;;;;5000049;28;20087;-20
2024/01/27 07:35:05;;;;;;;3.38;1.60;;;2.00;99.90;;;;;;5009860;28;20061;-23
2024/01/27 07:37:31;;;;;;;4.17;1.70;;;2.00;99.90;;;;;;5013603;28;20037;-20
2024/01/27 07:39:56;;;;;;;2.97;1.33;;;2.00;99.90;;;;;;5010398;28;20114;-20
2024/01/27 07:42:22;;;;;;;3.10;1.57;;;2.00;99.90;;;;;;5011827;28;20029;-19
2024/01/27 07:44:49;;;;;;;3.00;1.40;;;2.00;99.90;;;;;;5014624;28;20029;-20
2024/01/27 07:47:15;;;;;;;2.70;1.20;;;2.00;99.90;;;;;;5012655;28;20114;-19
2024/01/27 07:49:40;;;;;;;3.80;1.70;;;2.00;99.90;;;;;;5011896;28;21343;-20
2024/01/27 07:52:06;;;;;;;2.83;1.75;;;3.20;99.90;;;;;;4977918;28;20042;-19
2024/01/27 07:54:32;;;;;;;4.40;1.40;;;2.10;99.90;;;;;;5006155;28;20141;-19
2024/01/27 07:56:58;;;;;;;5.55;1.60;;;2.10;99.90;;;;;;5012085;28;20033;-18
2024/01/27 07:59:24;;;;;;;4.57;1.73;;;2.10;99.90;;;;;;5014434;28;20667;-26
2024/01/27 08:01:50;;;;;;;3.30;1.50;;;0.00;99.90;;;;;;5001842;28;20044;-23
2024/01/27 08:04:16;;;;;;;3.50;1.75;;;1.20;99.90;;;;;;5016815;28;20029;-23
2024/01/27 08:06:49;;;;;;;4.47;2.13;;;2.30;99.90;;;;;;5010581;28;20022;-24
2024/01/27 08:09:16;;;;;;;5.27;2.40;;;2.40;99.90;;;;;;5013331;28;20037;-23
2024/01/27 08:11:42;;;;;;;3.92;1.50;;;2.50;99.90;;;;;;4999422;28;20520;-22
2024/01/27 08:14:08;;;;;;;3.92;1.83;;;2.60;99.90;;;;;;5008124;28;20037;-24
2024/01/27 08:16:34;;;;;;;3.70;1.60;;;2.70;99.90;;;;;;5010579;28;20072;-26
2024/01/27 08:19:00;;;;;;;4.13;1.80;;;2.80;99.90;;;;;;5012571;28;20273;-24
2024/01/27 08:21:26;;;;;;;4.85;1.70;;;2.90;99.90;;;;;;4999648;28;20037;-24
2024/01/27 08:23:51;;;;;;;4.57;1.90;;;3.10;99.90;;;;;;5012557;28;20520;-29
2024/01/27 08:26:18;;;;;;;4.13;1.70;;;3.20;99.90;;;;;;5011879;28;20034;-23
2024/01/27 08:28:44;;;;;;;4.45;1.90;;;3.20;99.90;;;;;;5001811;28;20497;-20
2024/01/27 08:31:10;;;;;;;4.90;1.90;;;3.30;99.90;;;;;;5013359;28;20101;-19
2024/01/27 08:33:35;;;;;;;4.60;1.83;;;3.40;99.90;;;;;;4995784;28;20038;-19
2024/01/27 08:36:01;;;;;;;3.37;1.60;;;3.50;99.90;;;;;;5011741;28;20176;-18
2024/01/27 08:38:27;;;;;;;4.20;1.63;;;3.50;99.90;;;;;;5010953;28;20572;-20
2024/01/27 08:40:53;;;;;;;6.45;1.77;;;3.60;99.90;;;;;;4978575;28;20140;-19
2024/01/27 08:43:19;;;;;;;4.77;1.60;;;3.60;99.90;;;;;;5009948;28;20493;-19
2024/01/27 08:45:45;;;;;;;4.55;1.80;;;3.70;99.90;;;;;;4994519;28;20063;-19
2024/01/27 08:48:11;;;;;;;4.37;1.70;;;3.70;99.90;;;;;;4992897;28;20141;-19
2024/01/27 08:50:37;;;;;;;3.40;1.90;;;3.80;99.90;;;;;;4999402;28;20287;-20
2024/01/27 08:53:03;;;;;;;2.90;1.58;;;3.90;99.90;;;;;;5010279;28;20037;-19
2024/01/27 08:55:29;;;;;;;6.50;2.20;;;4.00;99.90;;;;;;5010290;28;20160;-20
2024/01/27 08:57:56;;;;;;;4.13;1.67;;;4.10;99.90;;;;;;5011855;28;20536;-21
2024/01/27 09:00:21;;;;;;;5.57;2.15;;;4.30;99.90;;;;;;5008658;28;20394;-19
2024/01/27 09:02:47;;;;;;;5.00;1.88;;;4.40;99.90;;;;;;4997603;28;20361;-19
2024/01/27 09:05:13;;;;;;;3.87;1.90;;;4.60;99.90;;;;;;5011788;28;20022;-20
2024/01/27 09:07:39;;;;;;;5.38;2.45;;;4.80;99.90;;;;;;5011888;28;20091;-21
2024/01/27 09:10:05;;;;;;;5.60;2.50;;;4.90;99.90;;;;;;5009793;28;20029;-21
2024/01/27 09:12:31;;;;;;;6.47;2.45;;;5.10;99.90;;;;;;5012737;28;20037;-20
2024/01/27 09:14:57;;;;;;;5.13;2.17;;;5.40;99.90;;;;;;5011894;28;20148;-19
2024/01/27 09:17:22;;;;;;;4.83;2.47;;;8.00;99.90;;;;;;4977061;28;20041;-20
2024/01/27 09:19:48;;;;;;;5.10;2.33;;;5.70;99.90;;;;;;5013137;28;20037;-19
2024/01/27 09:22:14;;;;;;;6.47;2.33;;;5.80;99.90;;;;;;5011621;28;20065;-20
2024/01/27 09:24:40;;;;;;;6.90;2.15;;;6.10;99.90;;;;;;4998494;28;20045;-21
2024/01/27 09:27:06;;;;;;;7.38;2.50;;;5.60;99.90;;;;;;5010369;28;20321;-19
2024/01/27 09:29:32;;;;;;;6.47;2.30;;;6.40;99.90;;;;;;5011397;28;20025;-22
2024/01/27 09:31:58;;;;;;;6.25;2.67;;;6.60;99.90;;;;;;4999678;28;20128;-20
2024/01/27 09:34:23;;;;;;;8.10;2.92;;;6.70;99.90;;;;;;4996104;28;20655;-20
2024/01/27 09:36:49;;;;;;;5.90;2.70;;;6.90;99.90;;;;;;5013111;28;20034;-21
2024/01/27 09:39:15;;;;;;;5.17;2.40;;;7.10;99.90;;;;;;5013904;28;20038;-23
2024/01/27 09:41:42;;;;;;;6.33;2.50;;;7.30;99.90;;;;;;5013517;28;20505;-23
2024/01/27 09:44:07;;;;;;;5.47;2.47;;;7.60;99.90;;;;;;5012781;28;20637;-22
2024/01/27 09:46:33;;;;;;;8.13;2.97;;;7.90;99.90;;;;;;5011566;28;20048;-23
2024/01/27 09:49:00;;;;;;;7.20;2.95;;;8.20;99.90;;;;;;5010401;28;20034;-19
2024/01/27 09:51:26;;;;;;;7.63;2.58;;;8.60;99.90;;;;;;5000178;28;20120;-19
2024/01/27 09:53:53;;;;;;;6.13;2.43;;;8.90;99.90;;;;;;5010028;28;20041;-19
2024/01/27 09:56:20;;;;;;;6.93;2.72;;;9.30;99.90;;;;;;5006525;28;20631;-22
2024/01/27 09:58:46;;;;;;;8.38;2.55;;;9.70;99.90;;;;;;5005784;28;20662;-19
2024/01/27 10:01:12;;;;;;;5.50;2.40;;;10.20;99.90;;;;;;5009588;28;20034;-19
2024/01/27 10:03:43;;;;;;;4.93;2.00;;;10.60;99.90;;;;;;5012770;28;20025;-19
2024/01/27 10:06:09;;;;;;;5.82;2.22;;;11.10;99.90;;;;;;5000008;28;20506;-20
2024/01/27 10:08:35;;;;;;;5.22;2.50;;;11.60;99.90;;;;;;5013270;28;20041;-21
2024/01/27 10:11:07;;;;;;;6.40;2.80;;;12.00;99.90;;;;;;5011338;28;20398;-19
2024/01/27 10:13:33;;;;;;;6.47;2.40;;;12.50;99.90;;;;;;4994281;28;20042;-23
2024/01/27 10:16:04;;;;;;;6.97;2.88;;;12.80;99.90;;;;;;4988097;28;20072;-21
2024/01/27 10:18:30;;;;;;;6.35;2.42;;;13.30;99.90;;;;;;5009675;28;20072;-21
2024/01/27 10:20:56;;;;;;;6.25;2.45;;;13.60;99.90;;;;;;4995102;28;20634;-22
2024/01/27 10:23:22;;;;;;;4.73;2.17;;;13.90;99.90;;;;;;5012632;28;20040;-21
2024/01/27 10:25:49;;;;;;;6.32;2.47;;;14.20;99.90;;;;;;5009977;28;20477;-19
2024/01/27 10:28:14;;;;;;;4.97;2.42;;;14.50;99.90;;;;;;5011889;28;20063;-20
2024/01/27 10:30:40;;;;;;;8.23;3.10;;;14.80;99.90;;;;;;5010896;28;20406;-20
2024/01/27 10:33:16;;;;;;;6.55;2.33;;;15.00;99.90;;;;;;4996284;28;20077;-23
2024/01/27 10:35:43;;;;;;;6.40;2.47;;;15.30;99.90;;;;;;5010882;28;20041;-21
2024/01/27 10:38:09;;;;;;;7.57;2.33;;;15.50;99.90;;;;;;4992818;28;20799;-20
2024/01/27 10:40:37;;;;;;;7.17;2.43;;;15.80;99.90;;;;;;5006745;28;20046;-19
2024/01/27 10:43:08;;;;;;;6.45;2.22;;;16.00;99.90;;;;;;5005116;28;20120;-21
2024/01/27 10:45:41;;;;;;;7.82;2.53;;;16.20;99.90;;;;;;5010746;28;20112;-22
2024/01/27 10:48:11;;;;;;;5.25;2.50;;;16.40;99.90;;;;;;5009162;28;20720;-21
2024/01/27 10:50:39;;;;;;;8.80;2.60;;;16.50;99.90;;;;;;4993334;28;20265;-22
2024/01/27 10:53:08;;;;;;;5.45;2.20;;;16.70;99.90;;;;;;5013146;28;20073;-21
2024/01/27 10:55:37;;;;;;;5.05;2.10;;;16.70;99.90;;;;;;5015029;28;20033;-21
2024/01/27 10:58:03;;;;;;;4.97;2.20;;;16.70;99.90;;;;;;5013856;28;20464;-20
2024/01/27 11:00:33;;;;;;;4.50;2.00;;;16.70;99.90;;;;;;5011336;28;20056;-25
2024/01/27 11:03:02;;;;;;;3.93;1.60;;;16.60;99.90;;;;;;5010988;28;20930;-25
2024/01/27 11:05:31;;;;;;;3.85;1.50;;;16.40;99.90;;;;;;4984689;28;20022;-24
2024/01/27 11:07:59;;;;;;;5.28;1.70;;;16.20;99.90;;;;;;5013887;28;20029;-23
2024/01/27 11:10:26;;;;;;;4.47;1.52;;;16.10;99.90;;;;;;4997051;28;20112;-24
2024/01/27 11:12:55;;;;;;;5.28;1.60;;;16.20;99.90;;;;;;4995689;28;20067;-23
2024/01/27 11:15:21;;;;;;;3.57;1.47;;;16.20;99.90;;;;;;5016315;28;20783;-23
2024/01/27 11:17:47;;;;;;;4.05;1.60;;;16.30;99.90;;;;;;5000344;28;20530;-22
2024/01/27 11:20:16;;;;;;;5.63;1.80;;;16.50;99.90;;;;;;4999042;28;20064;-21
2024/01/27 11:22:43;;;;;;;4.80;1.63;;;16.70;99.90;;;;;;5015356;28;20417;-21
2024/01/27 11:25:12;;;;;;;4.38;1.70;;;16.80;99.90;;;;;;5008580;28;20033;-21
2024/01/27 11:27:43;;;;;;;4.73;1.80;;;17.00;99.90;;;;;;5010412;28;20409;-23
2024/01/27 11:30:29;;;;;;;5.55;1.58;;;17.20;99.90;;;;;;4999072;28;20037;-26
2024/01/27 11:32:57;;;;;;;5.80;1.80;;;17.40;99.90;;;;;;5010810;28;20051;-28
2024/01/27 11:35:23;;;;;;;3.75;1.52;;;17.50;99.90;;;;;;5010415;28;20636;-27
2024/01/27 11:37:49;;;;;;;5.30;1.80;;;17.70;99.90;;;;;;4999343;28;20030;-23
2024/01/27 11:40:15;;;;;;;4.43;1.90;;;17.80;99.90;;;;;;5013673;28;20482;-25
2024/01/27 11:42:42;;;;;;;5.63;1.50;;;17.90;99.90;;;;;;4998117;28;20038;-23
2024/01/27 11:45:10;;;;;;;5.05;1.80;;;18.00;99.90;;;;;;5009366;28;20087;-28
2024/01/27 11:47:37;;;;;;;5.30;1.67;;;18.20;99.90;;;;;;5010604;28;20370;-28
2024/01/27 11:50:03;;;;;;;3.87;1.60;;;18.30;99.90;;;;;;5012557;28;20401;-24
2024/01/27 11:52:29;;;;;;;4.35;1.67;;;18.30;99.90;;;;;;5012103;28;20832;-23
2024/01/27 11:54:59;;;;;;;5.45;1.70;;;18.40;99.90;;;;;;5011533;28;20033;-28
2024/01/27 11:57:25;;;;;;;5.60;1.80;;;18.50;99.90;;;;;;4997275;28;20037;-27
2024/01/27 11:59:52;;;;;;;5.55;1.83;;;18.60;99.90;;;;;;4993710;28;20103;-23
2024/01/27 12:02:18;;;;;;;4.60;1.50;;;18.70;99.90;;;;;;5011272;28;20615;-23
2024/01/27 12:04:44;;;;;;;3.03;1.52;;;18.70;99.90;;;;;;5001300;28;20124;-24
2024/01/27 12:07:10;;;;;;;5.13;1.73;;;18.70;99.90;;;;;;5012781;28;20041;-24
2024/01/27 12:09:37;;;;;;;4.90;1.60;;;18.50;99.90;;;;;;5012898;28;20284;-23
2024/01/27 12:12:04;;;;;;;4.10;1.50;;;18.40;99.90;;;;;;4983071;28;20029;-25
2024/01/27 12:14:47;;;;;;;5.25;1.45;;;18.10;99.90;;;;;;5010468;28;20069;-23
2024/01/27 12:17:13;;;;;;;5.40;1.70;;;17.80;99.90;;;;;;5008233;28;20044;-21
2024/01/27 12:19:39;;;;;;;4.05;1.50;;;17.50;99.90;;;;;;5011476;28;20072;-23
2024/01/27 12:22:20;;;;;;;4.07;1.50;;;17.20;99.90;;;;;;5006521;28;20056;-23
2024/01/27 12:24:45;;;;;;;5.32;1.60;;;16.90;99.90;;;;;;5004269;28;20068;-22
2024/01/27 12:27:11;;;;;;;4.82;1.60;;;16.70;99.90;;;;;;5006802;28;20537;-23
2024/01/27 12:29:37;;;;;;;3.77;1.33;;;16.50;99.90;;;;;;5009001;28;20569;-23
2024/01/27 12:32:03;;;;;;;4.32;1.60;;;16.40;99.90;;;;;;4988107;28;20793;-23
2024/01/27 12:34:29;;;;;;;3.93;1.50;;;16.20;99.90;;;;;;5004670;28;20132;-22
2024/01/27 12:36:55;;;;;;;5.13;1.70;;;16.10;99.90;;;;;;5009652;28;20561;-26
2024/01/27 12:39:21;;;;;;;5.00;1.75;;;15.90;99.90;;;;;;5008162;28;20295;-23
2024/01/27 12:41:47;;;;;;;6.63;2.13;;;15.90;99.90;;;;;;4997387;28;20044;-23
2024/01/27 12:44:13;;;;;;;7.73;2.80;;;15.80;99.90;;;;;;4991913;28;20292;-21
2024/01/27 12:46:38;;;;;;;5.70;2.20;;;15.60;99.90;;;;;;5006143;28;20415;-24
2024/01/27 12:49:05;;;;;;;4.63;1.87;;;15.60;99.90;;;;;;4999033;28;20620;-22
2024/01/27 12:51:31;;;;;;;4.93;1.90;;;15.50;99.90;;;;;;5005151;28;20054;-24